createdAt,value
2018-07-06T10:22:40.762Z,99896.39
2018-07-06T10:25:09.093Z,99906.63
2018-07-06T10:27:49.833Z,99894.98
2018-07-06T10:30:34.769Z,99905.27
2018-07-06T10:35:03.174Z,99892.10
2018-07-06T10:37:31.745Z,99910.52
2018-07-06T10:42:12.617Z,99911.84
2018-07-06T10:44:42.033Z,99901.62
2018-07-06T10:47:10.866Z,99901.53
2018-07-06T10:49:39.322Z,99893.86
2018-07-06T10:52:08.228Z,99892.66
2018-07-06T10:54:37.377Z,99895.18
2018-07-06T10:57:05.969Z,99891.33
2018-07-06T10:59:35.434Z,99899.02
2018-07-06T11:02:03.832Z,99898.59
2018-07-06T11:04:32.316Z,99908.52
2018-07-06T11:07:00.775Z,99899.52
2018-07-06T11:09:29.066Z,99897.73
2018-07-06T11:11:57.521Z,99888.48
2018-07-06T11:14:26.095Z,99883.47
2018-07-06T11:16:54.402Z,99886.87
2018-07-06T11:19:22.791Z,99885.63
2018-07-06T11:21:51.187Z,99885.86
2018-07-06T11:24:19.534Z,99893.06
2018-07-06T11:26:47.838Z,99879.87
2018-07-06T11:29:16.201Z,99889.53
2018-07-06T11:31:44.561Z,99885.81
2018-07-06T11:34:12.912Z,99891.56
2018-07-06T11:36:41.222Z,99880.41
2018-07-06T11:39:09.566Z,99880.10
2018-07-06T11:41:39.547Z,99884.56
2018-07-06T11:44:08.039Z,99888.69
2018-07-06T11:46:37.753Z,99885.72
2018-07-06T11:50:36.989Z,99886.66
2018-07-06T11:53:05.313Z,99881.14
2018-07-06T11:55:33.715Z,99884.90
2018-07-06T11:58:01.987Z,99887.03
2018-07-06T12:00:30.221Z,99882.81
2018-07-06T12:03:02.022Z,99889.29
2018-07-06T12:05:29.645Z,99878.41
2018-07-06T12:07:57.074Z,99881.40
2018-07-06T12:10:24.704Z,99874.69
2018-07-06T12:12:52.226Z,99881.17
2018-07-06T12:15:19.673Z,99890.09
2018-07-06T12:17:47.123Z,99884.83
2018-07-06T12:20:54.613Z,99876.53
2018-07-06T12:23:22.050Z,99880.30
2018-07-06T12:25:49.474Z,99863.97
2018-07-06T12:28:17.017Z,99872.37
2018-07-06T12:30:44.486Z,99867.47
2018-07-06T12:33:11.926Z,99881.23
2018-07-06T12:35:39.422Z,99880.22
2018-07-06T12:38:06.843Z,99878.43
2018-07-06T12:40:34.346Z,99873.80
2018-07-06T12:43:01.796Z,99874.19
2018-07-06T12:45:29.209Z,99878.00
2018-07-06T12:47:57.042Z,99879.31
2018-07-06T12:50:24.529Z,99877.66
2018-07-06T12:52:52.014Z,99871.23
2018-07-06T12:55:19.450Z,99867.64
2018-07-06T12:57:46.942Z,99869.48
2018-07-06T13:00:14.403Z,99861.20
2018-07-06T13:02:41.832Z,99863.75
2018-07-06T13:05:09.310Z,99865.02
2018-07-06T13:07:36.747Z,99856.79
2018-07-06T13:10:04.170Z,99867.88
2018-07-06T13:12:31.557Z,99866.48
2018-07-06T13:14:58.994Z,99866.75
2018-07-06T13:17:26.525Z,99866.55
2018-07-06T13:19:53.992Z,99876.25
2018-07-06T13:22:21.398Z,99886.63
2018-07-06T13:24:48.832Z,99873.67
2018-07-06T13:27:16.303Z,99875.86
2018-07-06T13:29:43.759Z,99866.71
2018-07-06T13:32:11.222Z,99864.72
2018-07-06T13:34:38.645Z,99865.30
2018-07-06T13:37:06.134Z,99871.34
2018-07-06T13:39:33.598Z,99868.44
2018-07-06T13:42:01.049Z,99868.35
2018-07-06T13:44:28.495Z,99866.95
2018-07-06T13:46:56.074Z,99865.12
2018-07-06T13:49:23.422Z,99868.89
2018-07-06T13:51:51.351Z,99870.03
2018-07-06T13:54:18.841Z,99859.56
2018-07-06T13:56:46.578Z,99866.91
2018-07-06T13:59:14.129Z,99877.30
2018-07-06T14:01:41.514Z,99869.42
2018-07-06T14:04:09.729Z,99868.17
2018-07-06T14:06:37.226Z,99873.39
2018-07-06T14:09:05.179Z,99871.29
2018-07-06T14:11:33.067Z,99877.35
2018-07-06T14:14:01.060Z,99884.09
2018-07-06T14:16:28.501Z,99883.93
2018-07-06T14:18:55.861Z,99883.56
2018-07-06T14:21:23.310Z,99885.00
2018-07-06T14:23:50.791Z,99879.61
2018-07-06T14:26:18.223Z,99874.23
2018-07-06T14:28:45.720Z,99884.47
